Locust Grove, Oklahoma
Current Conditions -  °F | °C
As of 4:35 AM on Monday 22 Dec 2014 (Local Time) from KGCM Reporting Station
Haze Haze  
Wind Chill: 39°   Ceiling: 1100
Heat Index: 45°   Visibility: 3mi
Dew Point: 43°   Wind: 12mph
Humidity: 93%   Direction: 150°SSE
Pressure: 29.64"   Gusts: NA
Location:  36.2°N, 95.17°W
Report Text: KGCM 221035Z AUTO 15010KT 3SM BR OVC011 07/06 A2964 RMK AO2
Loading
Personal Weather Stations






























Interactive Weather Map New forecast layout! Learn more

10-Day Weather Forecast

Advertisements
Track Severe Weather on mobile